sensor_id;sensor_type;location;lat;lon;timestamp;temperature;humidity
16417;DHT22;8317;52.186;5.688;2023-08-12T00:01:21;21.10;99.90
16417;DHT22;8317;52.186;5.688;2023-08-12T00:03:48;21.10;99.90
16417;DHT22;8317;52.186;5.688;2023-08-12T00:06:15;21.10;99.90
16417;DHT22;8317;52.186;5.688;2023-08-12T00:08:42;21.00;99.90
16417;DHT22;8317;52.186;5.688;2023-08-12T00:11:09;21.00;99.90
16417;DHT22;8317;52.186;5.688;2023-08-12T00:13:36;21.00;99.90
16417;DHT22;8317;52.186;5.688;2023-08-12T00:16:03;21.00;99.90
16417;DHT22;8317;52.186;5.688;2023-08-12T00:18:31;21.00;99.90
16417;DHT22;8317;52.186;5.688;2023-08-12T00:21:06;21.00;99.90
16417;DHT22;8317;52.186;5.688;2023-08-12T00:23:37;20.90;99.90
16417;DHT22;8317;52.186;5.688;2023-08-12T00:26:04;20.90;99.90
16417;DHT22;8317;52.186;5.688;2023-08-12T00:28:31;20.90;99.90
16417;DHT22;8317;52.186;5.688;2023-08-12T00:30:58;20.90;99.90
16417;DHT22;8317;52.186;5.688;2023-08-12T00:33:25;20.90;99.90
16417;DHT22;8317;52.186;5.688;2023-08-12T00:35:53;21.00;99.90
16417;DHT22;8317;52.186;5.688;2023-08-12T00:38:20;21.00;99.90
16417;DHT22;8317;52.186;5.688;2023-08-12T00:40:47;20.90;99.90
16417;DHT22;8317;52.186;5.688;2023-08-12T00:43:14;20.80;99.90
16417;DHT22;8317;52.186;5.688;2023-08-12T00:45:41;20.80;99.90
16417;DHT22;8317;52.186;5.688;2023-08-12T00:48:08;20.80;99.90
16417;DHT22;8317;52.186;5.688;2023-08-12T00:50:36;20.70;99.90
16417;DHT22;8317;52.186;5.688;2023-08-12T00:53:05;20.70;99.90
16417;DHT22;8317;52.186;5.688;2023-08-12T00:55:33;20.70;99.90
16417;DHT22;8317;52.186;5.688;2023-08-12T00:58:00;20.70;99.90
16417;DHT22;8317;52.186;5.688;2023-08-12T01:00:27;20.70;99.90
16417;DHT22;8317;52.186;5.688;2023-08-12T01:02:54;20.60;99.90
16417;DHT22;8317;52.186;5.688;2023-08-12T01:05:22;20.50;99.90
16417;DHT22;8317;52.186;5.688;2023-08-12T01:07:49;20.50;99.90
16417;DHT22;8317;52.186;5.688;2023-08-12T01:10:21;20.50;99.90
16417;DHT22;8317;52.186;5.688;2023-08-12T01:12:52;20.50;99.90
16417;DHT22;8317;52.186;5.688;2023-08-12T01:15:22;20.50;99.90
16417;DHT22;8317;52.186;5.688;2023-08-12T01:17:50;20.50;99.90
16417;DHT22;8317;52.186;5.688;2023-08-12T01:20:20;20.50;99.90
16417;DHT22;8317;52.186;5.688;2023-08-12T01:22:56;20.40;99.90
16417;DHT22;8317;52.186;5.688;2023-08-12T01:25:25;20.40;99.90
16417;DHT22;8317;52.186;5.688;2023-08-12T01:27:52;20.50;99.90
16417;DHT22;8317;52.186;5.688;2023-08-12T01:30:20;20.40;99.90
16417;DHT22;8317;52.186;5.688;2023-08-12T01:32:54;20.40;99.90
16417;DHT22;8317;52.186;5.688;2023-08-12T01:35:27;20.40;99.90
16417;DHT22;8317;52.186;5.688;2023-08-12T01:37:57;20.40;99.90
16417;DHT22;8317;52.186;5.688;2023-08-12T01:40:28;20.40;99.90
16417;DHT22;8317;52.186;5.688;2023-08-12T01:42:55;20.40;99.90
16417;DHT22;8317;52.186;5.688;2023-08-12T01:45:23;20.40;99.90
16417;DHT22;8317;52.186;5.688;2023-08-12T01:47:50;20.40;99.90
16417;DHT22;8317;52.186;5.688;2023-08-12T01:50:17;20.40;99.90
16417;DHT22;8317;52.186;5.688;2023-08-12T01:52:44;20.40;99.90
16417;DHT22;8317;52.186;5.688;2023-08-12T01:55:11;20.40;99.90
16417;DHT22;8317;52.186;5.688;2023-08-12T01:57:39;20.40;99.90
16417;DHT22;8317;52.186;5.688;2023-08-12T02:00:07;20.40;99.90
16417;DHT22;8317;52.186;5.688;2023-08-12T02:02:34;20.40;99.90
16417;DHT22;8317;52.186;5.688;2023-08-12T02:05:01;20.40;99.90
16417;DHT22;8317;52.186;5.688;2023-08-12T02:07:28;20.30;99.90
16417;DHT22;8317;52.186;5.688;2023-08-12T02:09:55;20.30;99.90
16417;DHT22;8317;52.186;5.688;2023-08-12T02:12:22;20.30;99.90
16417;DHT22;8317;52.186;5.688;2023-08-12T02:14:50;20.30;99.90
16417;DHT22;8317;52.186;5.688;2023-08-12T02:17:17;20.30;99.90
16417;DHT22;8317;52.186;5.688;2023-08-12T02:19:44;20.30;99.90
16417;DHT22;8317;52.186;5.688;2023-08-12T02:22:11;20.30;99.90
16417;DHT22;8317;52.186;5.688;2023-08-12T02:24:38;20.30;99.90
16417;DHT22;8317;52.186;5.688;2023-08-12T02:27:05;20.30;99.90
16417;DHT22;8317;52.186;5.688;2023-08-12T02:29:32;20.20;99.90
16417;DHT22;8317;52.186;5.688;2023-08-12T02:32:00;20.20;99.90
16417;DHT22;8317;52.186;5.688;2023-08-12T02:34:27;20.20;99.90
16417;DHT22;8317;52.186;5.688;2023-08-12T02:36:54;20.20;99.90
16417;DHT22;8317;52.186;5.688;2023-08-12T02:39:20;20.20;99.90
16417;DHT22;8317;52.186;5.688;2023-08-12T02:41:47;20.20;99.90
16417;DHT22;8317;52.186;5.688;2023-08-12T02:44:14;20.10;99.90
16417;DHT22;8317;52.186;5.688;2023-08-12T02:46:41;20.10;99.90
16417;DHT22;8317;52.186;5.688;2023-08-12T02:49:09;20.10;99.90
16417;DHT22;8317;52.186;5.688;2023-08-12T02:51:36;20.10;99.90
16417;DHT22;8317;52.186;5.688;2023-08-12T02:54:03;20.10;99.90
16417;DHT22;8317;52.186;5.688;2023-08-12T02:56:30;20.20;99.90
16417;DHT22;8317;52.186;5.688;2023-08-12T02:58:57;20.20;99.90
16417;DHT22;8317;52.186;5.688;2023-08-12T03:01:24;20.10;99.90
16417;DHT22;8317;52.186;5.688;2023-08-12T03:03:51;20.20;99.90
16417;DHT22;8317;52.186;5.688;2023-08-12T03:06:19;20.10;99.90
16417;DHT22;8317;52.186;5.688;2023-08-12T03:08:46;20.10;99.90
16417;DHT22;8317;52.186;5.688;2023-08-12T03:11:13;20.20;99.90
16417;DHT22;8317;52.186;5.688;2023-08-12T03:13:41;20.10;99.90
16417;DHT22;8317;52.186;5.688;2023-08-12T03:16:11;20.20;99.90
16417;DHT22;8317;52.186;5.688;2023-08-12T03:18:38;20.10;99.90
16417;DHT22;8317;52.186;5.688;2023-08-12T03:21:06;20.10;99.90
16417;DHT22;8317;52.186;5.688;2023-08-12T03:23:35;20.10;99.90
16417;DHT22;8317;52.186;5.688;2023-08-12T03:26:02;20.20;99.90
16417;DHT22;8317;52.186;5.688;2023-08-12T03:28:29;20.20;99.90
16417;DHT22;8317;52.186;5.688;2023-08-12T03:30:56;20.20;99.90
16417;DHT22;8317;52.186;5.688;2023-08-12T03:33:23;20.10;99.90
16417;DHT22;8317;52.186;5.688;2023-08-12T03:35:50;20.10;99.90
16417;DHT22;8317;52.186;5.688;2023-08-12T03:38:17;20.20;99.90
16417;DHT22;8317;52.186;5.688;2023-08-12T03:40:45;20.20;99.90
16417;DHT22;8317;52.186;5.688;2023-08-12T03:43:12;20.20;99.90
16417;DHT22;8317;52.186;5.688;2023-08-12T03:45:42;20.20;99.90
16417;DHT22;8317;52.186;5.688;2023-08-12T03:48:09;20.10;99.90
16417;DHT22;8317;52.186;5.688;2023-08-12T03:50:37;20.10;99.90
16417;DHT22;8317;52.186;5.688;2023-08-12T03:53:04;20.20;99.90
16417;DHT22;8317;52.186;5.688;2023-08-12T03:55:31;20.20;99.90
16417;DHT22;8317;52.186;5.688;2023-08-12T03:58:00;20.10;99.90
16417;DHT22;8317;52.186;5.688;2023-08-12T04:00:28;20.20;99.90
16417;DHT22;8317;52.186;5.688;2023-08-12T04:02:55;20.10;99.90
16417;DHT22;8317;52.186;5.688;2023-08-12T04:05:22;20.20;99.90
16417;DHT22;8317;52.186;5.688;2023-08-12T04:07:49;20.10;99.90
16417;DHT22;8317;52.186;5.688;2023-08-12T04:10:16;20.10;99.90
16417;DHT22;8317;52.186;5.688;2023-08-12T04:12:43;20.10;99.90
16417;DHT22;8317;52.186;5.688;2023-08-12T04:15:11;20.10;99.90
16417;DHT22;8317;52.186;5.688;2023-08-12T04:17:38;20.10;99.90
16417;DHT22;8317;52.186;5.688;2023-08-12T04:20:07;20.10;99.90
16417;DHT22;8317;52.186;5.688;2023-08-12T04:22:34;20.10;99.90
16417;DHT22;8317;52.186;5.688;2023-08-12T04:25:02;20.10;99.90
16417;DHT22;8317;52.186;5.688;2023-08-12T04:27:29;20.10;99.90
16417;DHT22;8317;52.186;5.688;2023-08-12T04:29:56;20.10;99.90
16417;DHT22;8317;52.186;5.688;2023-08-12T04:32:24;20.10;99.90
16417;DHT22;8317;52.186;5.688;2023-08-12T04:34:51;20.10;99.90
16417;DHT22;8317;52.186;5.688;2023-08-12T04:37:17;20.10;99.90
16417;DHT22;8317;52.186;5.688;2023-08-12T04:39:44;20.10;99.90
16417;DHT22;8317;52.186;5.688;2023-08-12T04:42:12;20.20;99.90
16417;DHT22;8317;52.186;5.688;2023-08-12T04:44:39;20.10;99.90
16417;DHT22;8317;52.186;5.688;2023-08-12T04:47:06;20.10;99.90
16417;DHT22;8317;52.186;5.688;2023-08-12T04:49:34;20.10;99.90
16417;DHT22;8317;52.186;5.688;2023-08-12T04:52:01;20.20;99.90
16417;DHT22;8317;52.186;5.688;2023-08-12T04:54:28;20.20;99.90
16417;DHT22;8317;52.186;5.688;2023-08-12T04:56:55;20.20;99.90
16417;DHT22;8317;52.186;5.688;2023-08-12T04:59:22;20.30;99.90
16417;DHT22;8317;52.186;5.688;2023-08-12T05:01:49;20.30;99.90
16417;DHT22;8317;52.186;5.688;2023-08-12T05:04:16;20.30;99.90
16417;DHT22;8317;52.186;5.688;2023-08-12T05:06:44;20.20;99.90
16417;DHT22;8317;52.186;5.688;2023-08-12T05:09:11;20.30;99.90
16417;DHT22;8317;52.186;5.688;2023-08-12T05:11:38;20.30;99.90
16417;DHT22;8317;52.186;5.688;2023-08-12T05:14:05;20.30;99.90
16417;DHT22;8317;52.186;5.688;2023-08-12T05:16:32;20.30;99.90
16417;DHT22;8317;52.186;5.688;2023-08-12T05:18:59;20.30;99.90
16417;DHT22;8317;52.186;5.688;2023-08-12T05:21:25;20.30;99.90
16417;DHT22;8317;52.186;5.688;2023-08-12T05:23:54;20.30;99.90
16417;DHT22;8317;52.186;5.688;2023-08-12T05:26:21;20.40;99.90
16417;DHT22;8317;52.186;5.688;2023-08-12T05:28:48;20.30;99.90
16417;DHT22;8317;52.186;5.688;2023-08-12T05:31:14;20.40;99.90
16417;DHT22;8317;52.186;5.688;2023-08-12T05:33:41;20.40;99.90
16417;DHT22;8317;52.186;5.688;2023-08-12T05:36:08;20.30;99.90
16417;DHT22;8317;52.186;5.688;2023-08-12T05:38:35;20.30;99.90
16417;DHT22;8317;52.186;5.688;2023-08-12T05:41:03;20.30;99.90
16417;DHT22;8317;52.186;5.688;2023-08-12T05:43:32;20.30;99.90
16417;DHT22;8317;52.186;5.688;2023-08-12T05:45:59;20.30;99.90
16417;DHT22;8317;52.186;5.688;2023-08-12T05:48:26;20.30;99.90
16417;DHT22;8317;52.186;5.688;2023-08-12T05:50:53;20.40;99.90
16417;DHT22;8317;52.186;5.688;2023-08-12T05:53:21;20.40;99.90
16417;DHT22;8317;52.186;5.688;2023-08-12T05:55:48;20.40;99.90
16417;DHT22;8317;52.186;5.688;2023-08-12T05:58:16;20.40;99.90
16417;DHT22;8317;52.186;5.688;2023-08-12T06:00:43;20.40;99.90
16417;DHT22;8317;52.186;5.688;2023-08-12T06:03:11;20.40;99.90
16417;DHT22;8317;52.186;5.688;2023-08-12T06:05:39;20.40;99.90
16417;DHT22;8317;52.186;5.688;2023-08-12T06:08:06;20.50;99.90
16417;DHT22;8317;52.186;5.688;2023-08-12T06:10:33;20.50;99.90
16417;DHT22;8317;52.186;5.688;2023-08-12T06:13:00;20.40;99.90
16417;DHT22;8317;52.186;5.688;2023-08-12T06:15:29;20.40;99.90
16417;DHT22;8317;52.186;5.688;2023-08-12T06:17:56;20.30;99.90
16417;DHT22;8317;52.186;5.688;2023-08-12T06:20:23;20.30;99.90
16417;DHT22;8317;52.186;5.688;2023-08-12T06:22:50;20.30;99.90
16417;DHT22;8317;52.186;5.688;2023-08-12T06:25:18;20.30;99.90
16417;DHT22;8317;52.186;5.688;2023-08-12T06:27:45;20.30;99.90
16417;DHT22;8317;52.186;5.688;2023-08-12T06:30:13;20.40;99.90
16417;DHT22;8317;52.186;5.688;2023-08-12T06:32:41;20.30;99.90
16417;DHT22;8317;52.186;5.688;2023-08-12T06:35:08;20.30;99.90
16417;DHT22;8317;52.186;5.688;2023-08-12T06:37:35;20.30;99.90
16417;DHT22;8317;52.186;5.688;2023-08-12T06:40:03;20.30;99.90
16417;DHT22;8317;52.186;5.688;2023-08-12T06:42:30;20.30;99.90
16417;DHT22;8317;52.186;5.688;2023-08-12T06:44:58;20.20;99.90
16417;DHT22;8317;52.186;5.688;2023-08-12T06:47:25;20.30;99.90
16417;DHT22;8317;52.186;5.688;2023-08-12T06:49:56;20.20;99.90
16417;DHT22;8317;52.186;5.688;2023-08-12T06:52:23;20.20;99.90
16417;DHT22;8317;52.186;5.688;2023-08-12T06:54:50;20.20;99.90
16417;DHT22;8317;52.186;5.688;2023-08-12T06:57:17;20.30;99.90
16417;DHT22;8317;52.186;5.688;2023-08-12T06:59:44;20.30;99.90
16417;DHT22;8317;52.186;5.688;2023-08-12T07:02:11;20.30;99.90
16417;DHT22;8317;52.186;5.688;2023-08-12T07:04:38;20.20;99.90
16417;DHT22;8317;52.186;5.688;2023-08-12T07:07:06;20.20;99.90
16417;DHT22;8317;52.186;5.688;2023-08-12T07:09:33;20.10;99.90
16417;DHT22;8317;52.186;5.688;2023-08-12T07:12:00;20.20;99.90
16417;DHT22;8317;52.186;5.688;2023-08-12T07:14:28;20.20;99.90
16417;DHT22;8317;52.186;5.688;2023-08-12T07:16:55;20.20;99.90
16417;DHT22;8317;52.186;5.688;2023-08-12T07:19:22;20.20;99.90
16417;DHT22;8317;52.186;5.688;2023-08-12T07:21:49;20.30;99.90
16417;DHT22;8317;52.186;5.688;2023-08-12T07:24:18;20.10;99.90
16417;DHT22;8317;52.186;5.688;2023-08-12T07:26:45;20.20;99.90
16417;DHT22;8317;52.186;5.688;2023-08-12T07:29:12;20.20;99.90
16417;DHT22;8317;52.186;5.688;2023-08-12T07:31:39;20.20;99.90
16417;DHT22;8317;52.186;5.688;2023-08-12T07:34:05;20.20;99.90
16417;DHT22;8317;52.186;5.688;2023-08-12T07:36:32;20.10;99.90
16417;DHT22;8317;52.186;5.688;2023-08-12T07:38:59;20.10;99.90
16417;DHT22;8317;52.186;5.688;2023-08-12T07:41:27;20.10;99.90
16417;DHT22;8317;52.186;5.688;2023-08-12T07:43:54;20.00;99.90
16417;DHT22;8317;52.186;5.688;2023-08-12T07:46:21;20.10;99.90
16417;DHT22;8317;52.186;5.688;2023-08-12T07:48:48;20.00;99.90
16417;DHT22;8317;52.186;5.688;2023-08-12T07:51:15;20.20;99.90
16417;DHT22;8317;52.186;5.688;2023-08-12T07:53:42;20.10;99.90
16417;DHT22;8317;52.186;5.688;2023-08-12T07:56:09;20.10;99.90
16417;DHT22;8317;52.186;5.688;2023-08-12T07:58:37;20.10;99.90
16417;DHT22;8317;52.186;5.688;2023-08-12T08:01:04;20.10;99.90
16417;DHT22;8317;52.186;5.688;2023-08-12T08:03:33;20.10;99.90
16417;DHT22;8317;52.186;5.688;2023-08-12T08:06:00;20.10;99.90
16417;DHT22;8317;52.186;5.688;2023-08-12T08:08:27;20.10;99.90
16417;DHT22;8317;52.186;5.688;2023-08-12T08:10:54;20.10;99.90
16417;DHT22;8317;52.186;5.688;2023-08-12T08:13:21;20.00;99.90
16417;DHT22;8317;52.186;5.688;2023-08-12T08:15:49;19.90;99.90
16417;DHT22;8317;52.186;5.688;2023-08-12T08:18:16;20.00;99.90
16417;DHT22;8317;52.186;5.688;2023-08-12T08:20:43;20.00;99.90
16417;DHT22;8317;52.186;5.688;2023-08-12T08:23:10;20.00;99.90
16417;DHT22;8317;52.186;5.688;2023-08-12T08:25:37;20.00;99.90
16417;DHT22;8317;52.186;5.688;2023-08-12T08:28:04;20.10;99.90
16417;DHT22;8317;52.186;5.688;2023-08-12T08:30:31;20.20;99.90
16417;DHT22;8317;52.186;5.688;2023-08-12T08:32:59;20.20;99.90
16417;DHT22;8317;52.186;5.688;2023-08-12T08:35:26;20.30;99.90
16417;DHT22;8317;52.186;5.688;2023-08-12T08:37:53;20.30;99.90
16417;DHT22;8317;52.186;5.688;2023-08-12T08:40:20;20.20;99.90
16417;DHT22;8317;52.186;5.688;2023-08-12T08:42:47;20.30;99.90
16417;DHT22;8317;52.186;5.688;2023-08-12T08:45:15;20.30;99.90
16417;DHT22;8317;52.186;5.688;2023-08-12T08:47:43;20.30;99.90
16417;DHT22;8317;52.186;5.688;2023-08-12T08:50:13;20.40;99.90
16417;DHT22;8317;52.186;5.688;2023-08-12T08:52:41;20.40;99.90
16417;DHT22;8317;52.186;5.688;2023-08-12T08:55:09;20.40;99.90
16417;DHT22;8317;52.186;5.688;2023-08-12T08:57:37;20.40;99.90
16417;DHT22;8317;52.186;5.688;2023-08-12T09:00:05;20.40;99.90
16417;DHT22;8317;52.186;5.688;2023-08-12T09:02:33;20.40;99.90
16417;DHT22;8317;52.186;5.688;2023-08-12T09:05:01;20.40;99.90
16417;DHT22;8317;52.186;5.688;2023-08-12T09:07:31;20.40;99.90
16417;DHT22;8317;52.186;5.688;2023-08-12T09:09:59;20.40;99.90
16417;DHT22;8317;52.186;5.688;2023-08-12T09:12:27;20.50;99.90
16417;DHT22;8317;52.186;5.688;2023-08-12T09:14:54;20.60;99.90
16417;DHT22;8317;52.186;5.688;2023-08-12T09:17:21;20.60;99.90
16417;DHT22;8317;52.186;5.688;2023-08-12T09:19:49;20.50;99.90
16417;DHT22;8317;52.186;5.688;2023-08-12T09:22:17;20.50;99.90
16417;DHT22;8317;52.186;5.688;2023-08-12T09:24:46;20.50;99.90
16417;DHT22;8317;52.186;5.688;2023-08-12T09:27:17;20.60;99.90
16417;DHT22;8317;52.186;5.688;2023-08-12T09:29:44;20.70;99.90
16417;DHT22;8317;52.186;5.688;2023-08-12T09:32:12;20.70;99.90
16417;DHT22;8317;52.186;5.688;2023-08-12T09:34:46;20.80;99.90
16417;DHT22;8317;52.186;5.688;2023-08-12T09:37:14;20.70;99.90
16417;DHT22;8317;52.186;5.688;2023-08-12T09:39:42;20.70;99.90
16417;DHT22;8317;52.186;5.688;2023-08-12T09:42:11;20.40;99.90
16417;DHT22;8317;52.186;5.688;2023-08-12T09:44:38;20.00;99.90
16417;DHT22;8317;52.186;5.688;2023-08-12T09:47:06;19.60;99.90
16417;DHT22;8317;52.186;5.688;2023-08-12T09:49:33;19.50;99.90
16417;DHT22;8317;52.186;5.688;2023-08-12T09:52:01;19.70;99.90
16417;DHT22;8317;52.186;5.688;2023-08-12T09:54:29;19.70;99.90
16417;DHT22;8317;52.186;5.688;2023-08-12T09:56:58;19.80;99.90
16417;DHT22;8317;52.186;5.688;2023-08-12T09:59:31;19.70;99.90
16417;DHT22;8317;52.186;5.688;2023-08-12T10:02:00;19.50;99.90
16417;DHT22;8317;52.186;5.688;2023-08-12T10:04:34;19.50;99.90
16417;DHT22;8317;52.186;5.688;2023-08-12T10:07:02;19.30;99.90
16417;DHT22;8317;52.186;5.688;2023-08-12T10:09:33;19.20;99.90
16417;DHT22;8317;52.186;5.688;2023-08-12T10:12:03;19.40;99.90
16417;DHT22;8317;52.186;5.688;2023-08-12T10:14:32;19.10;99.90
16417;DHT22;8317;52.186;5.688;2023-08-12T10:16:59;19.10;99.90
16417;DHT22;8317;52.186;5.688;2023-08-12T10:19:27;18.90;99.90
16417;DHT22;8317;52.186;5.688;2023-08-12T10:21:56;18.90;99.90
16417;DHT22;8317;52.186;5.688;2023-08-12T10:24:24;18.90;99.90
16417;DHT22;8317;52.186;5.688;2023-08-12T10:26:54;18.80;99.90
16417;DHT22;8317;52.186;5.688;2023-08-12T10:29:22;18.90;99.90
16417;DHT22;8317;52.186;5.688;2023-08-12T10:31:51;18.90;99.90
16417;DHT22;8317;52.186;5.688;2023-08-12T10:34:19;19.00;99.90
16417;DHT22;8317;52.186;5.688;2023-08-12T10:36:47;19.10;99.90
16417;DHT22;8317;52.186;5.688;2023-08-12T10:39:14;19.10;99.90
16417;DHT22;8317;52.186;5.688;2023-08-12T10:41:50;19.30;99.90
16417;DHT22;8317;52.186;5.688;2023-08-12T10:44:20;19.50;99.90
16417;DHT22;8317;52.186;5.688;2023-08-12T10:46:52;19.70;99.90
16417;DHT22;8317;52.186;5.688;2023-08-12T10:49:19;19.80;99.90
16417;DHT22;8317;52.186;5.688;2023-08-12T10:51:48;20.00;99.90
16417;DHT22;8317;52.186;5.688;2023-08-12T10:54:16;20.40;99.90
16417;DHT22;8317;52.186;5.688;2023-08-12T10:57:09;20.50;99.90
16417;DHT22;8317;52.186;5.688;2023-08-12T10:59:52;20.70;99.90
16417;DHT22;8317;52.186;5.688;2023-08-12T11:02:25;20.90;99.90
16417;DHT22;8317;52.186;5.688;2023-08-12T11:04:54;21.30;99.90
16417;DHT22;8317;52.186;5.688;2023-08-12T11:07:23;21.50;99.90
16417;DHT22;8317;52.186;5.688;2023-08-12T11:09:55;21.80;99.90
16417;DHT22;8317;52.186;5.688;2023-08-12T11:12:29;21.90;99.90
16417;DHT22;8317;52.186;5.688;2023-08-12T11:14:58;22.00;99.90
16417;DHT22;8317;52.186;5.688;2023-08-12T11:17:32;22.20;99.90
16417;DHT22;8317;52.186;5.688;2023-08-12T11:20:00;22.40;99.90
16417;DHT22;8317;52.186;5.688;2023-08-12T11:22:30;22.60;99.90
16417;DHT22;8317;52.186;5.688;2023-08-12T11:24:57;22.80;99.90
16417;DHT22;8317;52.186;5.688;2023-08-12T11:27:24;23.20;99.90
16417;DHT22;8317;52.186;5.688;2023-08-12T11:29:51;23.00;99.90
16417;DHT22;8317;52.186;5.688;2023-08-12T11:32:18;23.50;99.90
16417;DHT22;8317;52.186;5.688;2023-08-12T11:34:47;23.50;99.90
16417;DHT22;8317;52.186;5.688;2023-08-12T11:37:14;23.30;99.90
16417;DHT22;8317;52.186;5.688;2023-08-12T11:39:41;23.60;99.90
16417;DHT22;8317;52.186;5.688;2023-08-12T11:42:08;23.60;99.90
16417;DHT22;8317;52.186;5.688;2023-08-12T11:44:35;23.60;99.90
16417;DHT22;8317;52.186;5.688;2023-08-12T11:47:02;23.60;99.90
16417;DHT22;8317;52.186;5.688;2023-08-12T11:49:29;23.60;99.90
16417;DHT22;8317;52.186;5.688;2023-08-12T11:51:57;23.30;99.90
16417;DHT22;8317;52.186;5.688;2023-08-12T11:54:24;22.80;99.90
16417;DHT22;8317;52.186;5.688;2023-08-12T11:56:51;22.80;99.90
16417;DHT22;8317;52.186;5.688;2023-08-12T11:59:21;22.60;99.90
16417;DHT22;8317;52.186;5.688;2023-08-12T12:01:49;23.00;99.90
16417;DHT22;8317;52.186;5.688;2023-08-12T12:04:16;23.60;99.90
16417;DHT22;8317;52.186;5.688;2023-08-12T12:06:45;23.60;99.90
16417;DHT22;8317;52.186;5.688;2023-08-12T12:09:15;23.40;99.90
16417;DHT22;8317;52.186;5.688;2023-08-12T12:11:44;23.60;99.90
16417;DHT22;8317;52.186;5.688;2023-08-12T12:14:11;23.40;99.90
16417;DHT22;8317;52.186;5.688;2023-08-12T12:16:40;23.70;99.90
16417;DHT22;8317;52.186;5.688;2023-08-12T12:19:15;23.90;99.90
16417;DHT22;8317;52.186;5.688;2023-08-12T12:21:44;24.20;99.90
16417;DHT22;8317;52.186;5.688;2023-08-12T12:24:11;23.90;99.90
16417;DHT22;8317;52.186;5.688;2023-08-12T12:26:40;24.60;99.90
16417;DHT22;8317;52.186;5.688;2023-08-12T12:29:08;24.20;99.90
16417;DHT22;8317;52.186;5.688;2023-08-12T12:31:37;23.80;99.90
16417;DHT22;8317;52.186;5.688;2023-08-12T12:34:04;23.90;99.90
16417;DHT22;8317;52.186;5.688;2023-08-12T12:36:32;24.00;99.90
16417;DHT22;8317;52.186;5.688;2023-08-12T12:38:59;24.10;99.90
16417;DHT22;8317;52.186;5.688;2023-08-12T12:41:26;24.40;99.90
16417;DHT22;8317;52.186;5.688;2023-08-12T12:43:54;24.50;99.90
16417;DHT22;8317;52.186;5.688;2023-08-12T12:46:21;24.30;99.90
16417;DHT22;8317;52.186;5.688;2023-08-12T12:48:48;24.00;99.90
16417;DHT22;8317;52.186;5.688;2023-08-12T12:51:15;23.80;99.90
16417;DHT22;8317;52.186;5.688;2023-08-12T12:53:42;23.90;99.90
16417;DHT22;8317;52.186;5.688;2023-08-12T12:56:09;23.60;99.90
16417;DHT22;8317;52.186;5.688;2023-08-12T12:58:37;23.90;99.90
16417;DHT22;8317;52.186;5.688;2023-08-12T13:01:05;24.30;99.90
16417;DHT22;8317;52.186;5.688;2023-08-12T13:03:32;24.20;99.90
16417;DHT22;8317;52.186;5.688;2023-08-12T13:05:59;24.00;99.90
16417;DHT22;8317;52.186;5.688;2023-08-12T13:08:28;24.10;99.90
16417;DHT22;8317;52.186;5.688;2023-08-12T13:10:56;24.10;99.90
16417;DHT22;8317;52.186;5.688;2023-08-12T13:13:23;24.00;99.90
16417;DHT22;8317;52.186;5.688;2023-08-12T13:15:51;23.80;99.90
16417;DHT22;8317;52.186;5.688;2023-08-12T13:18:19;24.20;99.90
16417;DHT22;8317;52.186;5.688;2023-08-12T13:20:46;24.40;99.90
16417;DHT22;8317;52.186;5.688;2023-08-12T13:23:14;24.70;99.90
16417;DHT22;8317;52.186;5.688;2023-08-12T13:25:41;24.80;99.90
16417;DHT22;8317;52.186;5.688;2023-08-12T13:28:08;24.90;99.90
16417;DHT22;8317;52.186;5.688;2023-08-12T13:30:35;24.50;99.90
16417;DHT22;8317;52.186;5.688;2023-08-12T13:33:03;24.70;99.90
16417;DHT22;8317;52.186;5.688;2023-08-12T13:35:31;24.80;99.90
16417;DHT22;8317;52.186;5.688;2023-08-12T13:37:58;24.60;99.90
16417;DHT22;8317;52.186;5.688;2023-08-12T13:40:25;24.30;99.90
16417;DHT22;8317;52.186;5.688;2023-08-12T13:42:52;24.10;99.90
16417;DHT22;8317;52.186;5.688;2023-08-12T13:45:19;23.70;99.90
16417;DHT22;8317;52.186;5.688;2023-08-12T13:47:46;23.60;99.90
16417;DHT22;8317;52.186;5.688;2023-08-12T13:50:13;23.50;99.90
16417;DHT22;8317;52.186;5.688;2023-08-12T13:52:41;23.70;99.90
16417;DHT22;8317;52.186;5.688;2023-08-12T13:55:08;23.60;99.90
16417;DHT22;8317;52.186;5.688;2023-08-12T13:57:35;23.80;99.90
16417;DHT22;8317;52.186;5.688;2023-08-12T14:00:03;24.20;99.90
16417;DHT22;8317;52.186;5.688;2023-08-12T14:02:35;24.20;99.90
16417;DHT22;8317;52.186;5.688;2023-08-12T14:05:02;24.10;99.90
16417;DHT22;8317;52.186;5.688;2023-08-12T14:07:29;24.00;99.90
16417;DHT22;8317;52.186;5.688;2023-08-12T14:09:58;23.90;99.90
16417;DHT22;8317;52.186;5.688;2023-08-12T14:12:25;23.70;99.90
16417;DHT22;8317;52.186;5.688;2023-08-12T14:14:52;23.40;99.90
16417;DHT22;8317;52.186;5.688;2023-08-12T14:17:19;23.60;99.90
16417;DHT22;8317;52.186;5.688;2023-08-12T14:19:49;23.80;99.90
16417;DHT22;8317;52.186;5.688;2023-08-12T14:22:16;23.90;99.90
16417;DHT22;8317;52.186;5.688;2023-08-12T14:24:43;24.00;99.90
16417;DHT22;8317;52.186;5.688;2023-08-12T14:27:12;24.10;99.90
16417;DHT22;8317;52.186;5.688;2023-08-12T14:29:39;24.10;99.90
16417;DHT22;8317;52.186;5.688;2023-08-12T14:32:06;24.20;99.90
16417;DHT22;8317;52.186;5.688;2023-08-12T14:34:33;24.60;99.90
16417;DHT22;8317;52.186;5.688;2023-08-12T14:37:00;24.20;99.90
16417;DHT22;8317;52.186;5.688;2023-08-12T14:39:26;24.30;99.90
16417;DHT22;8317;52.186;5.688;2023-08-12T14:41:53;24.40;99.90
16417;DHT22;8317;52.186;5.688;2023-08-12T14:44:21;24.50;99.90
16417;DHT22;8317;52.186;5.688;2023-08-12T14:46:48;24.40;99.90
16417;DHT22;8317;52.186;5.688;2023-08-12T14:49:15;24.60;99.90
16417;DHT22;8317;52.186;5.688;2023-08-12T14:51:42;24.50;99.90
16417;DHT22;8317;52.186;5.688;2023-08-12T14:54:09;24.40;99.90
16417;DHT22;8317;52.186;5.688;2023-08-12T14:56:36;24.30;99.90
16417;DHT22;8317;52.186;5.688;2023-08-12T14:59:03;24.30;99.90
16417;DHT22;8317;52.186;5.688;2023-08-12T15:01:31;24.00;99.90
16417;DHT22;8317;52.186;5.688;2023-08-12T15:03:58;24.20;99.90
16417;DHT22;8317;52.186;5.688;2023-08-12T15:06:25;24.20;99.90
16417;DHT22;8317;52.186;5.688;2023-08-12T15:08:53;24.10;99.90
16417;DHT22;8317;52.186;5.688;2023-08-12T15:11:20;24.30;99.90
16417;DHT22;8317;52.186;5.688;2023-08-12T15:13:48;24.10;99.90
16417;DHT22;8317;52.186;5.688;2023-08-12T15:16:15;23.90;99.90
16417;DHT22;8317;52.186;5.688;2023-08-12T15:18:43;23.70;99.90
16417;DHT22;8317;52.186;5.688;2023-08-12T15:21:10;23.50;99.90
16417;DHT22;8317;52.186;5.688;2023-08-12T15:23:37;23.60;99.90
16417;DHT22;8317;52.186;5.688;2023-08-12T15:26:04;23.60;99.90
16417;DHT22;8317;52.186;5.688;2023-08-12T15:28:31;23.90;99.90
16417;DHT22;8317;52.186;5.688;2023-08-12T15:30:58;23.90;99.90
16417;DHT22;8317;52.186;5.688;2023-08-12T15:33:25;23.70;99.90
16417;DHT22;8317;52.186;5.688;2023-08-12T15:35:53;23.50;99.90
16417;DHT22;8317;52.186;5.688;2023-08-12T15:38:20;23.50;99.90
16417;DHT22;8317;52.186;5.688;2023-08-12T15:40:47;23.50;99.90
16417;DHT22;8317;52.186;5.688;2023-08-12T15:43:14;23.50;99.90
16417;DHT22;8317;52.186;5.688;2023-08-12T15:45:42;23.50;99.90
16417;DHT22;8317;52.186;5.688;2023-08-12T15:48:09;23.50;99.90